Time;durP1;ratioP1;P1;durP2;ratioP2;P2;SDS_P1;SDS_P2;PMS_P1;PMS_P2;Temp;Humidity;BMP_temperature;BMP_pressure;BME280_temperature;BME280_humidity;BME280_pressure;Samples;Min_cycle;Max_cycle;Signal;HPM_P1;HPM_P2
2022/12/17 13:06:39;;;;;;;0.50;0.10;;;-2.20;1.00;;;;;;5981025;24;20423;-72
2022/12/17 13:09:36;;;;;;;0.60;0.50;;;-2.20;1.00;;;;;;5979930;24;20541;-70
2022/12/17 13:12:28;;;;;;;3.70;2.50;;;-2.20;1.00;;;;;;5979539;24;20439;-71
2022/12/17 13:15:09;;;;;;;0.50;0.10;;;-2.30;1.00;;;;;;5980790;24;20767;-70
2022/12/17 13:17:40;;;;;;;0.50;0.30;;;-2.30;1.00;;;;;;5980969;24;20390;-71
2022/12/17 13:20:25;;;;;;;0.50;0.10;;;-2.30;1.00;;;;;;5980512;24;20414;-71
2022/12/17 13:23:05;;;;;;;2.50;2.27;;;-2.40;1.00;;;;;;5980235;24;20486;-71
2022/12/17 13:25:36;;;;;;;0.50;0.10;;;-2.40;1.00;;;;;;5980629;24;20406;-71
2022/12/17 13:28:05;;;;;;;0.50;0.10;;;-2.40;1.00;;;;;;5979892;24;20828;-72
2022/12/17 13:30:36;;;;;;;0.50;0.10;;;-2.40;1.00;;;;;;5980530;24;20756;-70
2022/12/17 13:33:24;;;;;;;0.50;0.10;;;-2.40;1.00;;;;;;5979885;24;20418;-72
2022/12/17 13:36:03;;;;;;;0.50;0.50;;;-2.30;1.00;;;;;;5980607;24;20872;-72
2022/12/17 13:38:38;;;;;;;1.83;1.60;;;-2.30;1.00;;;;;;5979370;24;20418;-71
2022/12/17 13:41:11;;;;;;;1.97;0.40;;;-2.30;1.00;;;;;;5978946;24;20589;-70
2022/12/17 13:43:43;;;;;;;0.77;0.50;;;-4.10;1.00;;;;;;5978252;24;20522;-69
2022/12/17 13:46:19;;;;;;;0.50;0.10;;;-2.30;1.00;;;;;;5979737;24;20395;-70
2022/12/17 13:48:53;;;;;;;6.10;5.80;;;-2.20;1.00;;;;;;5979948;24;20528;-69
2022/12/17 13:51:23;;;;;;;1.50;1.40;;;-2.30;1.00;;;;;;5979478;24;20440;-71
2022/12/17 13:53:58;;;;;;;0.50;0.10;;;-2.30;1.00;;;;;;6025110;23;20460;-78
2022/12/17 13:56:29;;;;;;;0.50;0.10;;;-2.30;1.00;;;;;;6043633;23;20507;-77
2022/12/17 13:59:01;;;;;;;0.50;0.10;;;-2.30;1.00;;;;;;6043699;23;20496;-77
2022/12/17 14:01:44;;;;;;;0.50;0.10;;;-2.30;1.00;;;;;;6043361;23;20822;-77
2022/12/17 14:04:21;;;;;;;0.50;0.20;;;-2.30;1.00;;;;;;6049111;23;20447;-76
2022/12/17 14:06:50;;;;;;;0.50;0.10;;;-2.30;1.00;;;;;;6051020;23;20396;-77
2022/12/17 14:09:21;;;;;;;0.60;0.40;;;-2.40;1.00;;;;;;6050958;23;20440;-76
2022/12/17 14:14:38;;;;;;;2.43;2.33;;;-2.40;1.00;;;;;;6041439;23;20420;-76
2022/12/17 14:17:07;;;;;;;0.50;0.10;;;-2.40;1.00;;;;;;6040944;23;20408;-75
2022/12/17 14:19:36;;;;;;;2.47;2.27;;;-2.40;1.00;;;;;;6040159;23;20406;-76
2022/12/17 14:22:04;;;;;;;1.27;1.17;;;-2.50;1.00;;;;;;6039649;23;20415;-76
2022/12/17 14:24:33;;;;;;;0.50;0.10;;;-2.60;1.00;;;;;;6050371;23;20420;-77
2022/12/17 14:27:02;;;;;;;0.50;0.10;;;-2.60;1.00;;;;;;6063173;23;20413;-75
2022/12/17 14:29:31;;;;;;;0.50;0.10;;;-2.60;1.00;;;;;;6059335;23;20554;-76
2022/12/17 14:32:01;;;;;;;0.60;0.50;;;-2.60;1.00;;;;;;6053559;23;20522;-76
2022/12/17 14:34:41;;;;;;;0.50;0.10;;;-2.60;1.00;;;;;;6046854;23;20468;-76
2022/12/17 14:37:17;;;;;;;0.50;0.10;;;-2.60;1.00;;;;;;6046178;23;20407;-76
2022/12/17 14:39:47;;;;;;;0.50;0.10;;;-2.60;1.00;;;;;;6048223;23;20392;-76
2022/12/17 14:42:28;;;;;;;0.50;0.10;;;-2.70;1.00;;;;;;6049124;23;20902;-76
2022/12/17 14:44:58;;;;;;;0.50;0.10;;;-2.70;1.00;;;;;;6047226;23;20408;-75
2022/12/17 14:47:28;;;;;;;0.50;0.10;;;-2.70;1.00;;;;;;6042405;23;20399;-76
2022/12/17 14:50:04;;;;;;;9.10;3.53;;;-2.70;1.00;;;;;;6042836;23;20448;-76
2022/12/17 14:52:39;;;;;;;0.50;0.10;;;-2.70;1.00;;;;;;6046597;23;20468;-76
2022/12/17 14:55:52;;;;;;;1.10;1.10;;;-2.70;1.00;;;;;;6043782;23;20407;-76
2022/12/17 14:58:25;;;;;;;15.70;8.47;;;-2.70;1.00;;;;;;6056263;23;20416;-79
2022/12/17 15:00:58;;;;;;;0.50;0.10;;;-2.70;1.00;;;;;;6056418;23;20415;-77
2022/12/17 15:03:28;;;;;;;1.63;1.53;;;-2.70;1.00;;;;;;6055445;23;20436;-78
2022/12/17 15:05:58;;;;;;;0.80;0.80;;;-2.70;1.00;;;;;;6049976;23;20412;-78
2022/12/17 15:08:30;;;;;;;1.40;1.30;;;-2.70;1.00;;;;;;6041175;23;20420;-79
2022/12/17 15:10:57;;;;;;;0.60;0.47;;;-2.80;1.00;;;;;;6045042;23;20448;-80
2022/12/17 15:13:27;;;;;;;0.50;0.20;;;-2.90;1.00;;;;;;6044078;23;20835;-78
2022/12/17 15:15:55;;;;;;;0.50;0.10;;;-2.90;1.00;;;;;;6056119;23;20417;-81
2022/12/17 15:18:24;;;;;;;0.50;0.10;;;-3.00;1.00;;;;;;6058403;23;20488;-79
2022/12/17 15:20:53;;;;;;;0.60;0.30;;;-2.90;1.00;;;;;;6057206;23;20525;-78
2022/12/17 15:23:23;;;;;;;0.50;0.10;;;-3.00;1.00;;;;;;6054623;23;20242;-79
2022/12/17 15:25:52;;;;;;;0.50;0.10;;;-3.00;1.00;;;;;;6056042;23;20453;-79
2022/12/17 15:28:21;;;;;;;0.50;0.10;;;-3.00;1.00;;;;;;6058037;23;20412;-79
2022/12/17 15:30:50;;;;;;;0.97;0.90;;;-3.00;1.00;;;;;;6055933;23;20444;-78
2022/12/17 15:33:18;;;;;;;53.20;49.10;;;-3.10;1.00;;;;;;6060197;23;20436;-78
2022/12/17 15:35:46;;;;;;;9.70;9.27;;;-3.10;1.00;;;;;;6062376;23;20420;-79
2022/12/17 15:38:14;;;;;;;1.60;1.50;;;-3.10;1.00;;;;;;6063443;23;20397;-79
2022/12/17 15:40:42;;;;;;;0.77;0.77;;;-3.20;1.00;;;;;;6062713;23;20413;-79
2022/12/17 15:43:10;;;;;;;0.50;0.10;;;-3.20;1.00;;;;;;6063430;23;20516;-80
2022/12/17 15:45:39;;;;;;;0.80;0.70;;;-3.20;1.00;;;;;;6062669;23;20385;-80
2022/12/17 15:48:09;;;;;;;0.50;0.10;;;;;;;;;;6061771;23;20383;-80
2022/12/17 15:50:38;;;;;;;0.50;0.10;;;-3.30;1.00;;;;;;6063738;23;20440;-79
2022/12/17 15:53:06;;;;;;;0.50;0.10;;;-3.30;1.00;;;;;;6061824;23;20452;-79
2022/12/17 15:55:34;;;;;;;0.50;0.20;;;-3.30;1.00;;;;;;6062011;23;20433;-78
2022/12/17 15:58:03;;;;;;;0.50;0.10;;;-3.30;1.00;;;;;;6061186;23;20448;-79
2022/12/17 16:00:31;;;;;;;0.50;0.10;;;-3.30;1.00;;;;;;6052502;23;20416;-78
2022/12/17 16:02:59;;;;;;;0.50;0.10;;;-3.30;1.00;;;;;;6046082;23;20565;-77
2022/12/17 16:05:28;;;;;;;1.50;0.50;;;-3.30;1.00;;;;;;6053411;23;20460;-79
2022/12/17 16:08:01;;;;;;;0.50;0.10;;;-3.40;1.00;;;;;;6048240;23;20420;-78
2022/12/17 16:10:29;;;;;;;0.50;0.10;;;-3.50;1.00;;;;;;6048039;23;20446;-79
2022/12/17 16:12:58;;;;;;;0.50;0.10;;;;;;;;;;6044320;23;20515;-79
2022/12/17 16:15:25;;;;;;;0.50;0.10;;;-3.50;1.00;;;;;;6046440;23;20408;-79
2022/12/17 16:17:54;;;;;;;0.60;0.10;;;-3.50;1.00;;;;;;6047678;23;20488;-79
2022/12/17 16:20:23;;;;;;;0.50;0.10;;;-3.40;1.00;;;;;;6045434;23;20472;-79
2022/12/17 16:22:52;;;;;;;0.50;0.10;;;-3.40;1.00;;;;;;6043672;23;20441;-78
2022/12/17 16:25:20;;;;;;;1.63;1.53;;;-3.40;1.00;;;;;;6045563;23;20419;-77
2022/12/17 16:27:48;;;;;;;0.50;0.10;;;-3.40;1.00;;;;;;6044221;23;20427;-78
2022/12/17 16:30:16;;;;;;;0.50;0.37;;;-3.40;1.00;;;;;;6052931;23;20455;-77
2022/12/17 16:32:44;;;;;;;0.50;0.10;;;-3.50;1.00;;;;;;6055622;23;20429;-79
2022/12/17 16:35:12;;;;;;;2.23;2.13;;;-3.60;1.00;;;;;;6050709;23;20481;-78
2022/12/17 16:37:40;;;;;;;0.50;0.10;;;-3.50;1.00;;;;;;6052704;23;20441;-78
2022/12/17 16:40:11;;;;;;;0.50;0.10;;;-3.50;1.00;;;;;;6046993;23;20501;-78
2022/12/17 16:42:39;;;;;;;0.50;0.10;;;-3.50;1.00;;;;;;6046493;23;20759;-77
2022/12/17 16:45:08;;;;;;;0.50;0.10;;;-3.50;1.00;;;;;;6043476;23;20421;-78
2022/12/17 16:47:36;;;;;;;0.50;0.10;;;-3.50;1.00;;;;;;6041974;23;20420;-76
2022/12/17 16:50:05;;;;;;;0.50;0.30;;;-3.50;1.00;;;;;;6041598;23;20447;-79
2022/12/17 16:52:33;;;;;;;0.50;0.10;;;-3.50;1.00;;;;;;6043293;23;21028;-79
2022/12/17 16:55:01;;;;;;;0.50;0.10;;;-3.50;1.00;;;;;;6043368;23;20415;-79
2022/12/17 16:57:31;;;;;;;0.50;0.10;;;-3.50;1.00;;;;;;6043831;23;20417;-79
2022/12/17 16:59:59;;;;;;;0.50;0.10;;;-3.50;1.00;;;;;;6045006;23;20504;-79
2022/12/17 17:02:27;;;;;;;1.00;1.00;;;-3.50;1.00;;;;;;6048122;23;20556;-79
2022/12/17 17:04:55;;;;;;;0.50;0.10;;;-3.50;1.00;;;;;;6046068;23;20409;-79
2022/12/17 17:07:22;;;;;;;2.10;2.00;;;-3.50;1.00;;;;;;6043994;23;20408;-79
2022/12/17 17:09:50;;;;;;;0.50;0.20;;;-3.50;1.00;;;;;;6044839;23;20428;-79
2022/12/17 17:12:18;;;;;;;0.50;0.10;;;-3.50;1.00;;;;;;6050327;23;20401;-77
2022/12/17 17:14:50;;;;;;;0.50;0.27;;;-3.50;1.00;;;;;;6057118;23;20424;-80
2022/12/17 17:17:18;;;;;;;0.50;0.20;;;-3.60;1.00;;;;;;6064325;23;20411;-79
2022/12/17 17:20:07;;;;;;;0.53;0.43;;;-3.90;1.00;;;;;;6063709;23;20472;-77
2022/12/17 17:22:34;;;;;;;0.50;0.10;;;-3.60;1.00;;;;;;6050610;23;20429;-78
2022/12/17 17:25:02;;;;;;;8.03;4.67;;;-3.70;1.00;;;;;;6049794;23;20415;-78
2022/12/17 17:27:31;;;;;;;0.50;0.10;;;-3.70;1.00;;;;;;6046384;23;20989;-76
2022/12/17 17:30:00;;;;;;;0.60;0.10;;;-3.70;1.00;;;;;;6045689;23;20419;-78
2022/12/17 17:32:30;;;;;;;0.50;0.10;;;-3.70;1.00;;;;;;6044162;23;20427;-78
2022/12/17 17:34:58;;;;;;;0.50;0.10;;;-3.70;1.00;;;;;;6046213;23;20473;-79
2022/12/17 17:37:26;;;;;;;0.80;0.20;;;-3.40;1.00;;;;;;6044317;23;20409;-78
2022/12/17 17:39:54;;;;;;;3.03;1.47;;;-3.00;1.00;;;;;;6053413;23;20409;-78
2022/12/17 17:42:22;;;;;;;0.50;0.10;;;-3.80;1.00;;;;;;6049970;23;20941;-79
2022/12/17 17:44:51;;;;;;;0.50;0.10;;;-3.80;1.00;;;;;;6054286;23;20423;-79
2022/12/17 17:47:20;;;;;;;0.50;0.10;;;-3.80;1.00;;;;;;6049067;23;20408;-78
2022/12/17 17:49:48;;;;;;;0.50;0.10;;;-2.40;1.00;;;;;;6048959;23;20504;-79
2022/12/17 17:52:16;;;;;;;0.50;0.20;;;-3.80;1.00;;;;;;6046762;23;20452;-78
2022/12/17 17:54:44;;;;;;;0.50;0.20;;;-3.80;1.00;;;;;;6049713;23;20393;-79
2022/12/17 17:57:12;;;;;;;0.50;0.10;;;-3.80;1.00;;;;;;6048562;23;20425;-79
2022/12/17 17:59:40;;;;;;;0.50;0.20;;;-3.80;1.00;;;;;;6050068;23;20409;-80
2022/12/17 18:02:10;;;;;;;0.70;0.67;;;-3.80;1.00;;;;;;6048532;23;20405;-78
2022/12/17 18:04:40;;;;;;;0.60;0.30;;;-3.80;1.00;;;;;;6047928;23;20412;-79
2022/12/17 18:07:07;;;;;;;0.60;0.20;;;-3.70;1.00;;;;;;6049435;23;20961;-79
2022/12/17 18:09:53;;;;;;;0.50;0.30;;;-3.80;1.00;;;;;;6050362;23;20381;-79
2022/12/17 18:15:07;;;;;;;0.50;0.10;;;-3.90;1.00;;;;;;6047983;23;20412;-79
2022/12/17 18:17:46;;;;;;;0.60;0.33;;;-3.90;1.00;;;;;;6048177;23;20917;-79
2022/12/17 18:20:16;;;;;;;5.37;1.37;;;-3.90;1.00;;;;;;6045696;23;20476;-78
2022/12/17 18:22:45;;;;;;;0.60;0.47;;;-4.00;1.00;;;;;;6048767;23;20456;-79
2022/12/17 18:25:14;;;;;;;0.63;0.50;;;-4.00;1.00;;;;;;6044027;23;20428;-78
2022/12/17 18:27:42;;;;;;;1.17;0.73;;;-4.00;1.00;;;;;;6047674;23;20408;-78
2022/12/17 18:30:11;;;;;;;0.50;0.10;;;-4.00;1.00;;;;;;6041805;23;20400;-77
2022/12/17 18:32:39;;;;;;;2.57;2.47;;;-4.00;1.00;;;;;;6041269;23;20444;-78
2022/12/17 18:35:08;;;;;;;1.57;1.50;;;-4.10;1.00;;;;;;6044245;23;20413;-79
2022/12/17 18:37:38;;;;;;;0.50;0.10;;;-4.10;1.00;;;;;;6042280;23;20420;-77
2022/12/17 18:40:07;;;;;;;0.60;0.35;;;-4.20;1.00;;;;;;6046005;23;20802;-78
2022/12/17 18:45:21;;;;;;;2.00;1.80;;;-3.90;1.00;;;;;;6049568;23;20411;-78
2022/12/17 18:47:50;;;;;;;0.50;0.10;;;-4.20;1.00;;;;;;6048133;23;20468;-78
2022/12/17 18:50:18;;;;;;;1.33;1.23;;;-4.20;1.00;;;;;;6044828;23;20409;-78
2022/12/17 18:52:47;;;;;;;0.93;0.93;;;-4.30;1.00;;;;;;6044780;23;20504;-78
2022/12/17 18:55:16;;;;;;;0.50;0.10;;;-4.30;1.00;;;;;;6046682;23;20890;-77
2022/12/17 18:57:44;;;;;;;0.50;0.10;;;-4.40;1.00;;;;;;6044012;23;20408;-78
2022/12/17 19:00:13;;;;;;;0.50;0.20;;;-4.50;1.00;;;;;;6044572;23;20413;-77
2022/12/17 19:02:41;;;;;;;3.80;2.67;;;-4.50;1.00;;;;;;6041792;23;20428;-77
2022/12/17 19:05:09;;;;;;;1.07;0.97;;;-4.50;1.00;;;;;;6042213;23;20472;-78
2022/12/17 19:07:37;;;;;;;0.60;0.30;;;-4.60;1.00;;;;;;6043796;23;20504;-78
2022/12/17 19:10:08;;;;;;;0.50;0.10;;;-4.70;1.00;;;;;;6043266;23;20406;-78
2022/12/17 19:12:35;;;;;;;0.60;0.20;;;-4.70;1.00;;;;;;6043247;23;20451;-78
2022/12/17 19:15:04;;;;;;;1.73;1.33;;;-4.80;1.00;;;;;;6043891;23;20408;-79
2022/12/17 19:17:32;;;;;;;0.50;0.10;;;;;;;;;;6044912;23;20932;-78
2022/12/17 19:20:00;;;;;;;0.50;0.10;;;-4.90;1.00;;;;;;6046882;23;20407;-78
2022/12/17 19:22:28;;;;;;;0.50;0.10;;;-4.80;1.00;;;;;;6053953;23;20417;-79
2022/12/17 19:24:56;;;;;;;0.50;0.10;;;-4.80;1.00;;;;;;6053771;23;20435;-78
2022/12/17 19:27:25;;;;;;;0.50;0.10;;;-4.80;1.00;;;;;;6047667;23;20826;-78
2022/12/17 19:29:55;;;;;;;1.27;1.17;;;-4.80;1.00;;;;;;6045914;23;20421;-78
2022/12/17 19:32:23;;;;;;;0.50;0.10;;;-4.70;1.00;;;;;;6045810;23;20539;-78
2022/12/17 19:34:51;;;;;;;12.57;12.00;;;-4.70;1.00;;;;;;6042844;23;20736;-77
2022/12/17 19:37:19;;;;;;;0.50;0.20;;;-4.70;1.00;;;;;;6046693;23;20499;-78
2022/12/17 19:39:47;;;;;;;0.50;0.10;;;-4.70;1.00;;;;;;6044516;23;20752;-78
2022/12/17 19:42:24;;;;;;;1.03;0.97;;;-4.70;1.00;;;;;;6044377;23;20405;-78
2022/12/17 19:44:54;;;;;;;0.50;0.20;;;;;;;;;;6043851;23;20476;-77
2022/12/17 19:47:22;;;;;;;0.50;0.27;;;-4.60;1.00;;;;;;6044487;23;20416;-77
2022/12/17 19:49:50;;;;;;;0.50;0.10;;;-4.60;1.00;;;;;;6044084;23;20734;-78
2022/12/17 19:52:18;;;;;;;0.50;0.10;;;-4.60;1.00;;;;;;6044452;23;20463;-79
2022/12/17 19:54:46;;;;;;;7.30;3.20;;;-4.60;1.00;;;;;;6045262;23;20448;-78
2022/12/17 19:57:14;;;;;;;0.67;0.67;;;;;;;;;;6042634;23;20466;-79
2022/12/17 19:59:43;;;;;;;0.50;0.30;;;;;;;;;;6045128;23;20408;-77
2022/12/17 20:02:14;;;;;;;1.93;1.80;;;-4.70;1.00;;;;;;6047897;23;20791;-79
2022/12/17 20:04:42;;;;;;;0.50;0.10;;;-3.40;1.00;;;;;;6046756;23;20415;-79
2022/12/17 20:07:10;;;;;;;0.50;0.20;;;-4.60;1.00;;;;;;6043915;23;21115;-76
2022/12/17 20:09:39;;;;;;;0.50;0.10;;;-4.60;1.00;;;;;;6042849;23;20742;-77
2022/12/17 20:12:08;;;;;;;0.50;0.10;;;-4.60;1.00;;;;;;6043373;23;20444;-78
2022/12/17 20:14:36;;;;;;;0.77;0.77;;;;;;;;;;6042874;23;20420;-75
2022/12/17 20:17:05;;;;;;;0.50;0.10;;;-4.60;1.00;;;;;;6041629;23;20429;-77
2022/12/17 20:19:34;;;;;;;101.70;28.90;;;-4.60;1.00;;;;;;6040768;23;20409;-76
2022/12/17 20:22:05;;;;;;;0.50;0.10;;;-4.70;1.00;;;;;;6042487;23;20490;-75
2022/12/17 20:24:33;;;;;;;0.50;0.20;;;-4.70;1.00;;;;;;6045693;23;20412;-76
2022/12/17 20:27:01;;;;;;;7.47;7.00;;;-4.70;1.00;;;;;;6056675;23;20489;-78
2022/12/17 20:29:29;;;;;;;0.50;0.37;;;-4.80;1.00;;;;;;6040192;23;20408;-77
2022/12/17 20:31:59;;;;;;;4.10;3.63;;;-4.70;1.00;;;;;;6038793;23;20459;-77
2022/12/17 20:34:28;;;;;;;0.50;0.10;;;-4.70;1.00;;;;;;6039032;23;20428;-79
2022/12/17 20:36:57;;;;;;;0.50;0.20;;;-4.70;1.00;;;;;;6039203;23;20436;-77
2022/12/17 20:39:35;;;;;;;0.50;0.10;;;;;;;;;;6038961;23;20432;-80
2022/12/17 20:42:03;;;;;;;0.50;0.10;;;-4.70;1.00;;;;;;6039291;23;20444;-76
2022/12/17 20:44:30;;;;;;;0.50;0.10;;;-4.80;1.00;;;;;;6038774;23;20978;-79
2022/12/17 20:47:00;;;;;;;0.50;0.10;;;-4.70;1.00;;;;;;6038986;23;20443;-78
2022/12/17 20:49:27;;;;;;;0.50;0.10;;;-4.70;1.00;;;;;;6040522;23;20413;-77
2022/12/17 20:51:55;;;;;;;9.90;8.97;;;-4.70;1.00;;;;;;6041314;23;20956;-76
2022/12/17 20:54:24;;;;;;;0.50;0.10;;;-4.80;1.00;;;;;;6040169;23;20415;-77
2022/12/17 20:56:52;;;;;;;2.57;2.37;;;-4.80;1.00;;;;;;6039860;23;20439;-78
2022/12/17 20:59:20;;;;;;;0.50;0.10;;;-4.80;1.00;;;;;;6039361;23;20460;-78
2022/12/17 21:01:48;;;;;;;4.70;4.47;;;-4.70;1.00;;;;;;6039078;23;20416;-76
2022/12/17 21:04:26;;;;;;;0.50;0.20;;;;;;;;;;6038866;23;20399;-77
2022/12/17 21:06:54;;;;;;;0.50;0.10;;;-4.70;1.00;;;;;;6038440;23;20454;-78
2022/12/17 21:09:24;;;;;;;1.23;0.97;;;-4.70;1.00;;;;;;6038776;23;20468;-77
2022/12/17 21:11:56;;;;;;;2.10;1.23;;;-4.70;1.00;;;;;;6038294;23;20851;-78
2022/12/17 21:14:23;;;;;;;0.50;0.10;;;-4.80;1.00;;;;;;6038229;23;20921;-76
2022/12/17 21:16:55;;;;;;;0.97;0.77;;;-4.80;1.00;;;;;;6038304;23;20424;-78
2022/12/17 21:19:24;;;;;;;4.00;1.90;;;-4.70;1.00;;;;;;6038742;23;20409;-78
2022/12/17 21:21:52;;;;;;;0.97;0.97;;;-4.80;1.00;;;;;;6038501;23;20912;-76
2022/12/17 21:24:19;;;;;;;0.50;0.10;;;-4.80;1.00;;;;;;6038801;23;20409;-79
2022/12/17 21:26:47;;;;;;;0.50;0.10;;;-4.80;1.00;;;;;;6038981;23;20803;-79
2022/12/17 21:29:17;;;;;;;0.50;0.10;;;-4.80;1.00;;;;;;6041268;23;20400;-77
2022/12/17 21:31:46;;;;;;;3.73;2.23;;;-4.80;1.00;;;;;;6044484;23;20401;-78
2022/12/17 21:34:16;;;;;;;5.60;5.30;;;-4.80;1.00;;;;;;6043848;23;20476;-76
2022/12/17 21:36:44;;;;;;;1.40;1.30;;;-4.80;1.00;;;;;;6041802;23;20426;-76
2022/12/17 21:39:14;;;;;;;0.97;0.70;;;-4.80;1.00;;;;;;6041974;23;20464;-77
2022/12/17 21:43:00;;;;;;;1.00;0.97;;;-4.90;1.00;;;;;;6042009;23;20415;-77
2022/12/17 21:44:33;;;;;;;0.50;0.30;;;;;;;;;;6041897;23;20409;-77
2022/12/17 21:47:02;;;;;;;0.50;0.27;;;-4.90;1.00;;;;;;6043195;23;20429;-77
2022/12/17 21:49:30;;;;;;;0.50;0.10;;;;;;;;;;6042037;23;20420;-78
2022/12/17 21:51:59;;;;;;;0.50;0.10;;;-4.90;1.00;;;;;;6041433;23;21079;-77
2022/12/17 21:54:27;;;;;;;7.73;6.90;;;-4.90;1.00;;;;;;6042063;23;20440;-77
2022/12/17 21:56:55;;;;;;;3.63;0.77;;;-4.90;1.00;;;;;;6042451;23;20491;-77
2022/12/17 21:59:22;;;;;;;0.50;0.10;;;-3.80;1.00;;;;;;6041886;23;20415;-77
2022/12/17 22:01:55;;;;;;;0.50;0.10;;;-4.90;1.00;;;;;;6041743;23;20412;-78
2022/12/17 22:04:24;;;;;;;0.50;0.10;;;-4.90;1.00;;;;;;6041670;23;20409;-79
2022/12/17 22:06:52;;;;;;;0.50;0.20;;;-4.80;1.00;;;;;;6041956;23;20428;-77
2022/12/17 22:09:40;;;;;;;0.50;0.10;;;-4.90;1.00;;;;;;6041444;23;20400;-77
2022/12/17 22:15:13;;;;;;;0.50;0.10;;;-4.90;1.00;;;;;;6041858;23;20414;-76
2022/12/17 22:17:43;;;;;;;4.20;3.73;;;-5.00;1.00;;;;;;6041493;23;20432;-77
2022/12/17 22:20:11;;;;;;;15.83;9.70;;;-5.00;1.00;;;;;;6042599;23;20412;-77
2022/12/17 22:22:39;;;;;;;1.17;1.17;;;-5.10;1.00;;;;;;6043909;23;20456;-76
2022/12/17 22:25:09;;;;;;;2.03;1.93;;;-5.10;1.00;;;;;;6046078;23;20408;-76
2022/12/17 22:27:39;;;;;;;2.40;2.30;;;-5.10;1.00;;;;;;6042595;23;20816;-75
2022/12/17 22:32:59;;;;;;;1.80;1.70;;;-5.20;1.00;;;;;;6041719;23;20742;-78
2022/12/17 22:35:33;;;;;;;0.50;0.20;;;-5.10;1.00;;;;;;6041617;23;20416;-77
2022/12/17 22:38:21;;;;;;;1.83;1.73;;;-5.20;1.00;;;;;;6041146;23;20184;-77
2022/12/17 22:43:28;;;;;;;0.50;0.10;;;-5.10;1.00;;;;;;6040450;23;20799;-79
2022/12/17 22:44:16;;;;;;;15.17;13.90;;;-5.10;1.00;;;;;;6039800;23;20426;-79
2022/12/17 22:47:08;;;;;;;0.50;0.10;;;-5.20;1.00;;;;;;6039543;23;20495;-76
2022/12/17 22:49:39;;;;;;;0.50;0.10;;;-5.10;1.00;;;;;;6039867;23;20214;-78
2022/12/17 22:52:09;;;;;;;0.50;0.10;;;-5.10;1.00;;;;;;6039528;23;20389;-76
2022/12/17 22:54:37;;;;;;;0.50;0.10;;;-5.10;1.00;;;;;;6040252;23;20449;-77
2022/12/17 22:57:05;;;;;;;0.60;0.43;;;-5.20;1.00;;;;;;6039524;23;20452;-76
2022/12/17 22:59:53;;;;;;;2.03;1.93;;;-5.20;1.00;;;;;;6045504;23;20409;-75
2022/12/17 23:02:20;;;;;;;2.47;2.37;;;-5.20;1.00;;;;;;6046016;23;20427;-76
2022/12/17 23:04:50;;;;;;;0.50;0.10;;;-5.20;1.00;;;;;;6039854;23;20725;-77
2022/12/17 23:07:18;;;;;;;7.45;3.92;;;-5.30;1.00;;;;;;6039488;23;20424;-77
2022/12/17 23:09:45;;;;;;;0.50;0.10;;;-5.20;1.00;;;;;;6039378;23;20184;-75
2022/12/17 23:14:59;;;;;;;1.30;0.68;;;;;;;;;;6039500;23;20451;-78
2022/12/17 23:17:26;;;;;;;10.13;3.03;;;-5.30;1.00;;;;;;6039343;23;20211;-79
2022/12/17 23:19:56;;;;;;;0.50;0.10;;;-5.30;1.00;;;;;;6039246;23;20420;-77
2022/12/17 23:22:23;;;;;;;0.50;0.10;;;-5.30;1.00;;;;;;6039754;23;20409;-78
2022/12/17 23:24:51;;;;;;;2.70;2.00;;;-5.20;1.00;;;;;;6038693;23;20180;-76
2022/12/17 23:27:19;;;;;;;0.50;0.10;;;-5.30;1.00;;;;;;6038681;23;20429;-76
2022/12/17 23:29:47;;;;;;;0.50;0.10;;;-5.30;1.00;;;;;;6039801;23;20408;-76
2022/12/17 23:32:15;;;;;;;0.50;0.10;;;-5.30;1.00;;;;;;6039254;23;20409;-78
2022/12/17 23:34:43;;;;;;;1.70;1.60;;;-5.30;1.00;;;;;;6039460;23;20444;-76
2022/12/17 23:37:12;;;;;;;0.50;0.10;;;-5.30;1.00;;;;;;6039545;23;20428;-78
2022/12/17 23:39:40;;;;;;;0.50;0.10;;;-5.30;1.00;;;;;;6040584;23;20416;-76
2022/12/17 23:42:08;;;;;;;0.50;0.10;;;-5.30;1.00;;;;;;6040744;23;20404;-76
2022/12/17 23:44:36;;;;;;;2.25;2.15;;;-5.30;1.00;;;;;;6038602;23;20417;-77
2022/12/17 23:47:03;;;;;;;0.50;0.10;;;-5.40;1.00;;;;;;6038399;23;20711;-77
2022/12/17 23:49:31;;;;;;;0.50;0.10;;;-5.40;1.00;;;;;;6038875;23;20419;-78
2022/12/17 23:51:59;;;;;;;0.50;0.10;;;-5.40;1.00;;;;;;6039113;23;20412;-79
2022/12/17 23:54:29;;;;;;;0.50;0.10;;;-5.40;1.00;;;;;;6038603;23;21211;-77
2022/12/17 23:56:56;;;;;;;0.50;0.10;;;-5.40;1.00;;;;;;6038876;23;20692;-75
2022/12/17 23:59:24;;;;;;;0.50;0.30;;;-5.40;1.00;;;;;;6039373;23;20720;-77
